Williamsport Regional Airport
KIPT : rendu visible

Aérodrome :











RETROUVEZ-NOUS SUR...

 
LOGIN :

S'inscrire | Disclaimer

   EN    FR    IT 

 









Légende :    VFR   VFR Marginal   IFR   IFR Intensif   IFR Très Intensif
Visi : 
Plafond : 
>= 8 km
>= 3000ft
5 à 8 km
1000 à 3000 ft
1500m à 5 km
500 à 1000 ft
800 à 1500m
200 à 500 ft
< 800m
< 200 ft
Symboles :   Orages  Brouillard  Fortes neiges  Fortes précipitations  Vent > 20 kt






- Altitude de l'aérodrome : 529 ft
- Code IATA : IPT


KIPT - Williamsport Regional

DERNIER METAR :
  • 190732Z AUTO 07003KT 9SM FEW007 SCT013 OVC050 00/M02 A2967 RMK AO2 SNE02 P0000 T00001017

METARs EXPIRÉS :
  • 190654Z AUTO 13005KT 3SM -SN BR OVC006 M01/M02 A2968 RMK AO2 SNE10B28 SLP055 P0000 T10061017
  • 190603Z AUTO 00000KT 3SM -SN BR BKN006 OVC014 M01/M02 A2968 RMK AO2 P0000 T10061022
  • 190544Z AUTO 00000KT 3SM -SN BR BKN016 OVC024 M01/M02 A2967 RMK AO2 SNB19 P0000 T10061022

TAF KIPT
Valide du 19 à 08h jusqu'au 20 à 06h UTC


190741Z 1908/2006 27004KT P6SM OVC030
FM191200 27011KT P6SM OVC030
FM191500 27013G20KT P6SM OVC030
FM191800 27013G20KT P6SM OVC050



MET'MAP, la Météo Aéronautique d'un coup d'oeil ! - Copyright ORBIFLY Décembre 2007 - Disclaimer

ORBIFLY MET'MAP TEAM :

Programmation & Développement : Alexandra Zaïnal
Sur une idée originale de : Baudouin d'Aumeries
Assistance à la programmation : Marc-Olivier Méhu
Soutien technique & logistique : Manuel Goepfert

Contact : metmap@orbifly.com




SOURCES & CREDITS :

   NOAA       Earth
Advisory